sensor_id;sensor_type;location;lat;lon;timestamp;P1;durP1;ratioP1;P2;durP2;ratioP2
3095;SDS011;1558;42.700;23.360;2022-12-07T00:01:40;32.43;;;23.20;;
3095;SDS011;1558;42.700;23.360;2022-12-07T00:04:10;33.77;;;22.10;;
3095;SDS011;1558;42.700;23.360;2022-12-07T00:06:40;25.87;;;18.27;;
3095;SDS011;1558;42.700;23.360;2022-12-07T00:09:10;30.60;;;20.83;;
3095;SDS011;1558;42.700;23.360;2022-12-07T00:11:40;26.40;;;19.33;;
3095;SDS011;1558;42.700;23.360;2022-12-07T00:14:12;28.70;;;20.53;;
3095;SDS011;1558;42.700;23.360;2022-12-07T00:16:41;29.13;;;21.37;;
3095;SDS011;1558;42.700;23.360;2022-12-07T00:19:10;36.80;;;26.60;;
3095;SDS011;1558;42.700;23.360;2022-12-07T00:21:39;39.07;;;25.10;;
3095;SDS011;1558;42.700;23.360;2022-12-07T00:24:07;32.00;;;24.77;;
3095;SDS011;1558;42.700;23.360;2022-12-07T00:26:36;35.73;;;24.40;;
3095;SDS011;1558;42.700;23.360;2022-12-07T00:29:06;29.90;;;22.43;;
3095;SDS011;1558;42.700;23.360;2022-12-07T00:31:40;31.30;;;20.27;;
3095;SDS011;1558;42.700;23.360;2022-12-07T00:34:11;29.07;;;20.10;;
3095;SDS011;1558;42.700;23.360;2022-12-07T00:36:41;29.73;;;20.73;;
3095;SDS011;1558;42.700;23.360;2022-12-07T00:39:09;22.30;;;17.77;;
3095;SDS011;1558;42.700;23.360;2022-12-07T00:41:37;27.57;;;19.17;;
3095;SDS011;1558;42.700;23.360;2022-12-07T00:44:05;27.07;;;19.43;;
3095;SDS011;1558;42.700;23.360;2022-12-07T00:46:33;27.30;;;20.20;;
3095;SDS011;1558;42.700;23.360;2022-12-07T00:49:05;28.97;;;20.90;;
3095;SDS011;1558;42.700;23.360;2022-12-07T00:56:31;29.87;;;23.20;;
3095;SDS011;1558;42.700;23.360;2022-12-07T00:59:17;38.37;;;24.87;;
3095;SDS011;1558;42.700;23.360;2022-12-07T01:02:04;34.20;;;24.33;;
3095;SDS011;1558;42.700;23.360;2022-12-07T01:05:04;32.13;;;24.47;;
3095;SDS011;1558;42.700;23.360;2022-12-07T01:08:14;32.43;;;22.13;;
3095;SDS011;1558;42.700;23.360;2022-12-07T01:14:01;29.47;;;22.97;;
3095;SDS011;1558;42.700;23.360;2022-12-07T01:17:13;30.27;;;22.73;;
3095;SDS011;1558;42.700;23.360;2022-12-07T01:20:08;27.97;;;20.60;;
3095;SDS011;1558;42.700;23.360;2022-12-07T01:23:15;28.73;;;21.80;;
3095;SDS011;1558;42.700;23.360;2022-12-07T01:26:33;32.07;;;22.20;;
3095;SDS011;1558;42.700;23.360;2022-12-07T01:30:27;24.50;;;19.50;;
3095;SDS011;1558;42.700;23.360;2022-12-07T01:33:48;31.73;;;22.13;;
3095;SDS011;1558;42.700;23.360;2022-12-07T01:36:35;25.47;;;19.77;;
3095;SDS011;1558;42.700;23.360;2022-12-07T01:42:54;29.00;;;20.57;;
3095;SDS011;1558;42.700;23.360;2022-12-07T01:48:16;25.60;;;19.37;;
3095;SDS011;1558;42.700;23.360;2022-12-07T01:50:57;27.10;;;19.97;;
3095;SDS011;1558;42.700;23.360;2022-12-07T01:53:38;23.87;;;19.07;;
3095;SDS011;1558;42.700;23.360;2022-12-07T01:56:13;28.33;;;18.23;;
3095;SDS011;1558;42.700;23.360;2022-12-07T01:58:47;24.97;;;18.73;;
3095;SDS011;1558;42.700;23.360;2022-12-07T02:01:23;24.50;;;19.43;;
3095;SDS011;1558;42.700;23.360;2022-12-07T02:03:53;31.83;;;22.37;;
3095;SDS011;1558;42.700;23.360;2022-12-07T02:06:22;28.57;;;21.73;;
3095;SDS011;1558;42.700;23.360;2022-12-07T02:08:58;29.20;;;22.10;;
3095;SDS011;1558;42.700;23.360;2022-12-07T02:11:33;30.90;;;23.30;;
3095;SDS011;1558;42.700;23.360;2022-12-07T02:14:16;29.70;;;22.60;;
3095;SDS011;1558;42.700;23.360;2022-12-07T02:17:03;32.37;;;21.23;;
3095;SDS011;1558;42.700;23.360;2022-12-07T02:19:51;30.50;;;21.30;;
3095;SDS011;1558;42.700;23.360;2022-12-07T02:25:58;30.90;;;23.13;;
3095;SDS011;1558;42.700;23.360;2022-12-07T02:32:47;29.53;;;21.17;;
3095;SDS011;1558;42.700;23.360;2022-12-07T02:35:39;29.90;;;22.40;;
3095;SDS011;1558;42.700;23.360;2022-12-07T02:38:58;31.70;;;22.20;;
3095;SDS011;1558;42.700;23.360;2022-12-07T02:41:51;26.03;;;20.20;;
3095;SDS011;1558;42.700;23.360;2022-12-07T02:45:10;27.43;;;20.90;;
3095;SDS011;1558;42.700;23.360;2022-12-07T02:47:56;28.90;;;21.20;;
3095;SDS011;1558;42.700;23.360;2022-12-07T02:50:28;32.37;;;22.53;;
3095;SDS011;1558;42.700;23.360;2022-12-07T02:53:32;32.93;;;24.30;;
3095;SDS011;1558;42.700;23.360;2022-12-07T02:56:45;30.27;;;22.17;;
3095;SDS011;1558;42.700;23.360;2022-12-07T02:59:44;32.30;;;26.47;;
3095;SDS011;1558;42.700;23.360;2022-12-07T03:08:12;31.20;;;22.23;;
3095;SDS011;1558;42.700;23.360;2022-12-07T03:11:12;27.97;;;21.40;;
3095;SDS011;1558;42.700;23.360;2022-12-07T03:14:16;28.47;;;21.73;;
3095;SDS011;1558;42.700;23.360;2022-12-07T03:16:57;30.10;;;22.23;;
3095;SDS011;1558;42.700;23.360;2022-12-07T03:19:38;33.67;;;25.37;;
3095;SDS011;1558;42.700;23.360;2022-12-07T03:22:19;32.63;;;24.50;;
3095;SDS011;1558;42.700;23.360;2022-12-07T03:25:00;29.90;;;23.13;;
3095;SDS011;1558;42.700;23.360;2022-12-07T03:27:40;27.80;;;21.33;;
3095;SDS011;1558;42.700;23.360;2022-12-07T03:30:17;29.73;;;22.00;;
3095;SDS011;1558;42.700;23.360;2022-12-07T03:33:13;29.00;;;22.13;;
3095;SDS011;1558;42.700;23.360;2022-12-07T03:40:03;36.17;;;26.03;;
3095;SDS011;1558;42.700;23.360;2022-12-07T03:42:58;33.20;;;26.37;;
3095;SDS011;1558;42.700;23.360;2022-12-07T03:52:14;26.57;;;20.53;;
3095;SDS011;1558;42.700;23.360;2022-12-07T03:54:48;30.27;;;22.83;;
3095;SDS011;1558;42.700;23.360;2022-12-07T03:57:26;36.10;;;24.83;;
3095;SDS011;1558;42.700;23.360;2022-12-07T04:00:05;31.13;;;23.13;;
3095;SDS011;1558;42.700;23.360;2022-12-07T04:02:44;33.37;;;21.77;;
3095;SDS011;1558;42.700;23.360;2022-12-07T04:05:30;28.67;;;20.30;;
3095;SDS011;1558;42.700;23.360;2022-12-07T04:08:01;32.23;;;21.60;;
3095;SDS011;1558;42.700;23.360;2022-12-07T04:10:32;31.20;;;21.63;;
3095;SDS011;1558;42.700;23.360;2022-12-07T04:13:15;29.40;;;21.33;;
3095;SDS011;1558;42.700;23.360;2022-12-07T04:16:02;31.00;;;21.37;;
3095;SDS011;1558;42.700;23.360;2022-12-07T04:18:37;30.23;;;21.17;;
3095;SDS011;1558;42.700;23.360;2022-12-07T04:21:07;27.33;;;19.90;;
3095;SDS011;1558;42.700;23.360;2022-12-07T04:23:41;28.17;;;20.57;;
3095;SDS011;1558;42.700;23.360;2022-12-07T04:26:22;26.33;;;20.20;;
3095;SDS011;1558;42.700;23.360;2022-12-07T04:29:36;26.73;;;20.57;;
3095;SDS011;1558;42.700;23.360;2022-12-07T04:32:07;29.10;;;20.83;;
3095;SDS011;1558;42.700;23.360;2022-12-07T04:34:35;24.97;;;19.17;;
3095;SDS011;1558;42.700;23.360;2022-12-07T04:37:56;25.10;;;18.13;;
3095;SDS011;1558;42.700;23.360;2022-12-07T04:43:05;26.27;;;18.20;;
3095;SDS011;1558;42.700;23.360;2022-12-07T04:45:46;27.27;;;17.97;;
3095;SDS011;1558;42.700;23.360;2022-12-07T04:48:21;21.70;;;17.87;;
3095;SDS011;1558;42.700;23.360;2022-12-07T04:52:07;25.60;;;18.77;;
3095;SDS011;1558;42.700;23.360;2022-12-07T04:55:15;29.97;;;19.27;;
3095;SDS011;1558;42.700;23.360;2022-12-07T05:05:23;23.73;;;18.10;;
3095;SDS011;1558;42.700;23.360;2022-12-07T05:08:08;28.20;;;19.53;;
3095;SDS011;1558;42.700;23.360;2022-12-07T05:10:51;27.43;;;19.53;;
3095;SDS011;1558;42.700;23.360;2022-12-07T05:13:19;23.97;;;18.73;;
3095;SDS011;1558;42.700;23.360;2022-12-07T05:15:48;30.83;;;20.07;;
3095;SDS011;1558;42.700;23.360;2022-12-07T05:18:17;27.40;;;19.70;;
3095;SDS011;1558;42.700;23.360;2022-12-07T05:20:57;30.17;;;20.03;;
3095;SDS011;1558;42.700;23.360;2022-12-07T05:23:26;27.90;;;20.20;;
3095;SDS011;1558;42.700;23.360;2022-12-07T05:25:53;27.23;;;19.20;;
3095;SDS011;1558;42.700;23.360;2022-12-07T05:28:21;29.03;;;21.07;;
3095;SDS011;1558;42.700;23.360;2022-12-07T05:30:49;32.87;;;23.40;;
3095;SDS011;1558;42.700;23.360;2022-12-07T05:33:24;34.57;;;24.43;;
3095;SDS011;1558;42.700;23.360;2022-12-07T05:35:53;35.73;;;24.43;;
3095;SDS011;1558;42.700;23.360;2022-12-07T05:38:23;31.93;;;23.93;;
3095;SDS011;1558;42.700;23.360;2022-12-07T05:40:51;30.80;;;22.77;;
3095;SDS011;1558;42.700;23.360;2022-12-07T05:43:19;31.87;;;21.87;;
3095;SDS011;1558;42.700;23.360;2022-12-07T05:45:47;28.40;;;21.30;;
3095;SDS011;1558;42.700;23.360;2022-12-07T05:48:15;28.37;;;20.33;;
3095;SDS011;1558;42.700;23.360;2022-12-07T05:50:43;27.73;;;22.53;;
3095;SDS011;1558;42.700;23.360;2022-12-07T05:53:10;32.30;;;23.20;;
3095;SDS011;1558;42.700;23.360;2022-12-07T05:55:46;39.40;;;25.50;;
3095;SDS011;1558;42.700;23.360;2022-12-07T05:58:14;31.90;;;24.33;;
3095;SDS011;1558;42.700;23.360;2022-12-07T06:00:59;31.60;;;23.77;;
3095;SDS011;1558;42.700;23.360;2022-12-07T06:03:27;35.63;;;23.67;;
3095;SDS011;1558;42.700;23.360;2022-12-07T06:05:55;47.07;;;31.50;;
3095;SDS011;1558;42.700;23.360;2022-12-07T06:08:23;41.33;;;29.17;;
3095;SDS011;1558;42.700;23.360;2022-12-07T06:10:53;33.17;;;25.57;;
3095;SDS011;1558;42.700;23.360;2022-12-07T06:13:36;35.97;;;26.63;;
3095;SDS011;1558;42.700;23.360;2022-12-07T06:16:10;41.13;;;27.67;;
3095;SDS011;1558;42.700;23.360;2022-12-07T06:18:38;38.83;;;27.77;;
3095;SDS011;1558;42.700;23.360;2022-12-07T06:21:06;37.27;;;28.47;;
3095;SDS011;1558;42.700;23.360;2022-12-07T06:23:34;38.93;;;30.23;;
3095;SDS011;1558;42.700;23.360;2022-12-07T06:26:03;45.10;;;32.23;;
3095;SDS011;1558;42.700;23.360;2022-12-07T06:28:31;41.43;;;30.63;;
3095;SDS011;1558;42.700;23.360;2022-12-07T06:30:59;43.03;;;30.33;;
3095;SDS011;1558;42.700;23.360;2022-12-07T06:33:28;38.43;;;27.70;;
3095;SDS011;1558;42.700;23.360;2022-12-07T06:35:56;33.57;;;26.20;;
3095;SDS011;1558;42.700;23.360;2022-12-07T06:38:24;38.30;;;28.60;;
3095;SDS011;1558;42.700;23.360;2022-12-07T06:40:52;43.20;;;27.67;;
3095;SDS011;1558;42.700;23.360;2022-12-07T06:43:22;37.30;;;29.23;;
3095;SDS011;1558;42.700;23.360;2022-12-07T06:45:50;41.57;;;30.17;;
3095;SDS011;1558;42.700;23.360;2022-12-07T06:48:18;39.47;;;29.37;;
3095;SDS011;1558;42.700;23.360;2022-12-07T06:50:46;42.10;;;31.17;;
3095;SDS011;1558;42.700;23.360;2022-12-07T06:53:20;45.30;;;30.63;;
3095;SDS011;1558;42.700;23.360;2022-12-07T06:55:50;47.83;;;32.90;;
3095;SDS011;1558;42.700;23.360;2022-12-07T06:58:18;45.20;;;32.27;;
3095;SDS011;1558;42.700;23.360;2022-12-07T07:00:47;44.67;;;32.83;;
3095;SDS011;1558;42.700;23.360;2022-12-07T07:03:16;45.90;;;33.03;;
3095;SDS011;1558;42.700;23.360;2022-12-07T07:05:44;45.23;;;32.83;;
3095;SDS011;1558;42.700;23.360;2022-12-07T07:08:12;44.83;;;33.60;;
3095;SDS011;1558;42.700;23.360;2022-12-07T07:10:49;54.00;;;35.47;;
3095;SDS011;1558;42.700;23.360;2022-12-07T07:13:17;52.67;;;39.47;;
3095;SDS011;1558;42.700;23.360;2022-12-07T07:21:20;51.20;;;39.23;;
3095;SDS011;1558;42.700;23.360;2022-12-07T07:23:53;54.37;;;39.10;;
3095;SDS011;1558;42.700;23.360;2022-12-07T07:32:39;51.63;;;38.00;;
3095;SDS011;1558;42.700;23.360;2022-12-07T10:36:44;30.27;;;22.23;;
3095;SDS011;1558;42.700;23.360;2022-12-07T10:39:13;32.50;;;22.60;;
3095;SDS011;1558;42.700;23.360;2022-12-07T10:41:52;30.03;;;22.47;;
3095;SDS011;1558;42.700;23.360;2022-12-07T10:44:22;31.50;;;23.97;;
3095;SDS011;1558;42.700;23.360;2022-12-07T10:46:53;35.13;;;23.70;;
3095;SDS011;1558;42.700;23.360;2022-12-07T10:49:43;33.57;;;27.27;;
3095;SDS011;1558;42.700;23.360;2022-12-07T10:52:37;36.23;;;27.27;;
3095;SDS011;1558;42.700;23.360;2022-12-07T10:55:16;34.93;;;29.17;;
3095;SDS011;1558;42.700;23.360;2022-12-07T10:58:03;29.13;;;23.73;;
3095;SDS011;1558;42.700;23.360;2022-12-07T11:00:45;30.13;;;23.37;;
3095;SDS011;1558;42.700;23.360;2022-12-07T11:03:36;30.37;;;24.70;;
3095;SDS011;1558;42.700;23.360;2022-12-07T11:06:15;28.63;;;23.73;;
3095;SDS011;1558;42.700;23.360;2022-12-07T11:08:57;30.03;;;24.07;;
3095;SDS011;1558;42.700;23.360;2022-12-07T11:11:33;29.30;;;22.20;;
3095;SDS011;1558;42.700;23.360;2022-12-07T11:14:06;24.43;;;21.50;;
3095;SDS011;1558;42.700;23.360;2022-12-07T11:16:48;30.67;;;21.80;;
3095;SDS011;1558;42.700;23.360;2022-12-07T11:19:24;29.30;;;21.43;;
3095;SDS011;1558;42.700;23.360;2022-12-07T11:22:18;27.97;;;20.27;;
3095;SDS011;1558;42.700;23.360;2022-12-07T11:24:54;23.40;;;18.23;;
3095;SDS011;1558;42.700;23.360;2022-12-07T11:27:28;24.90;;;18.63;;
3095;SDS011;1558;42.700;23.360;2022-12-07T11:32:57;18.23;;;14.17;;
3095;SDS011;1558;42.700;23.360;2022-12-07T11:35:36;21.20;;;14.23;;
3095;SDS011;1558;42.700;23.360;2022-12-07T11:38:14;16.73;;;13.97;;
3095;SDS011;1558;42.700;23.360;2022-12-07T11:40:51;20.93;;;14.63;;
3095;SDS011;1558;42.700;23.360;2022-12-07T11:43:42;19.63;;;14.93;;
3095;SDS011;1558;42.700;23.360;2022-12-07T11:46:20;22.00;;;15.30;;
3095;SDS011;1558;42.700;23.360;2022-12-07T11:48:54;20.90;;;15.93;;
3095;SDS011;1558;42.700;23.360;2022-12-07T11:51:29;16.10;;;14.40;;
3095;SDS011;1558;42.700;23.360;2022-12-07T11:54:03;18.07;;;15.40;;
3095;SDS011;1558;42.700;23.360;2022-12-07T11:56:41;18.10;;;15.00;;
3095;SDS011;1558;42.700;23.360;2022-12-07T11:59:12;20.80;;;16.60;;
3095;SDS011;1558;42.700;23.360;2022-12-07T12:01:47;23.53;;;17.43;;
3095;SDS011;1558;42.700;23.360;2022-12-07T12:04:31;23.67;;;17.67;;
3095;SDS011;1558;42.700;23.360;2022-12-07T12:07:15;27.20;;;17.93;;
3095;SDS011;1558;42.700;23.360;2022-12-07T12:10:14;26.90;;;19.00;;
3095;SDS011;1558;42.700;23.360;2022-12-07T12:13:01;26.23;;;19.30;;
3095;SDS011;1558;42.700;23.360;2022-12-07T12:16:30;22.27;;;18.40;;
3095;SDS011;1558;42.700;23.360;2022-12-07T12:19:16;26.67;;;20.13;;
3095;SDS011;1558;42.700;23.360;2022-12-07T12:21:54;27.97;;;18.70;;
3095;SDS011;1558;42.700;23.360;2022-12-07T12:24:25;20.67;;;16.40;;
3095;SDS011;1558;42.700;23.360;2022-12-07T12:26:57;21.37;;;16.10;;
3095;SDS011;1558;42.700;23.360;2022-12-07T12:29:32;22.13;;;16.03;;
3095;SDS011;1558;42.700;23.360;2022-12-07T12:32:07;19.23;;;16.67;;
3095;SDS011;1558;42.700;23.360;2022-12-07T12:34:57;21.90;;;15.77;;
3095;SDS011;1558;42.700;23.360;2022-12-07T12:37:43;18.13;;;15.47;;
3095;SDS011;1558;42.700;23.360;2022-12-07T12:58:45;22.37;;;17.67;;
3095;SDS011;1558;42.700;23.360;2022-12-07T13:01:37;24.03;;;17.23;;
3095;SDS011;1558;42.700;23.360;2022-12-07T13:04:18;26.03;;;17.83;;
3095;SDS011;1558;42.700;23.360;2022-12-07T13:06:51;24.70;;;18.10;;
3095;SDS011;1558;42.700;23.360;2022-12-07T13:09:21;23.80;;;17.60;;
3095;SDS011;1558;42.700;23.360;2022-12-07T13:12:00;26.13;;;20.53;;
3095;SDS011;1558;42.700;23.360;2022-12-07T13:14:42;21.87;;;19.47;;
3095;SDS011;1558;42.700;23.360;2022-12-07T13:23:20;25.17;;;18.77;;
3095;SDS011;1558;42.700;23.360;2022-12-07T13:26:01;24.30;;;17.80;;
3095;SDS011;1558;42.700;23.360;2022-12-07T13:28:44;22.90;;;16.87;;
3095;SDS011;1558;42.700;23.360;2022-12-07T13:31:32;22.50;;;16.77;;
3095;SDS011;1558;42.700;23.360;2022-12-07T13:34:02;22.77;;;17.13;;
3095;SDS011;1558;42.700;23.360;2022-12-07T13:36:34;23.97;;;17.63;;
3095;SDS011;1558;42.700;23.360;2022-12-07T13:39:17;24.47;;;17.70;;
3095;SDS011;1558;42.700;23.360;2022-12-07T13:41:49;24.67;;;17.37;;
3095;SDS011;1558;42.700;23.360;2022-12-07T13:44:19;21.63;;;15.97;;
3095;SDS011;1558;42.700;23.360;2022-12-07T13:46:49;19.97;;;15.87;;
3095;SDS011;1558;42.700;23.360;2022-12-07T13:49:22;26.90;;;18.40;;
3095;SDS011;1558;42.700;23.360;2022-12-07T13:51:52;21.77;;;17.23;;
3095;SDS011;1558;42.700;23.360;2022-12-07T13:54:22;22.07;;;17.70;;
3095;SDS011;1558;42.700;23.360;2022-12-07T13:56:50;26.67;;;19.47;;
3095;SDS011;1558;42.700;23.360;2022-12-07T13:59:20;21.87;;;18.47;;
3095;SDS011;1558;42.700;23.360;2022-12-07T14:01:51;22.67;;;17.33;;
3095;SDS011;1558;42.700;23.360;2022-12-07T14:04:29;21.63;;;16.13;;
3095;SDS011;1558;42.700;23.360;2022-12-07T14:07:00;19.73;;;16.13;;
3095;SDS011;1558;42.700;23.360;2022-12-07T14:09:53;24.40;;;16.33;;
3095;SDS011;1558;42.700;23.360;2022-12-07T14:12:23;31.53;;;17.27;;
3095;SDS011;1558;42.700;23.360;2022-12-07T14:14:51;27.33;;;18.03;;
3095;SDS011;1558;42.700;23.360;2022-12-07T14:17:21;27.57;;;17.97;;
3095;SDS011;1558;42.700;23.360;2022-12-07T14:19:51;30.93;;;17.73;;
3095;SDS011;1558;42.700;23.360;2022-12-07T14:22:27;27.77;;;17.87;;
3095;SDS011;1558;42.700;23.360;2022-12-07T14:25:01;25.33;;;18.07;;
3095;SDS011;1558;42.700;23.360;2022-12-07T14:27:47;26.43;;;19.03;;
3095;SDS011;1558;42.700;23.360;2022-12-07T14:30:17;27.83;;;19.70;;
3095;SDS011;1558;42.700;23.360;2022-12-07T14:32:46;27.83;;;19.20;;
3095;SDS011;1558;42.700;23.360;2022-12-07T14:35:18;34.93;;;22.87;;
3095;SDS011;1558;42.700;23.360;2022-12-07T14:37:48;37.23;;;22.33;;
3095;SDS011;1558;42.700;23.360;2022-12-07T14:40:17;36.90;;;23.53;;
3095;SDS011;1558;42.700;23.360;2022-12-07T14:42:48;26.70;;;20.80;;
3095;SDS011;1558;42.700;23.360;2022-12-07T14:45:20;30.67;;;21.90;;
3095;SDS011;1558;42.700;23.360;2022-12-07T14:47:50;35.13;;;21.87;;
3095;SDS011;1558;42.700;23.360;2022-12-07T14:50:38;30.07;;;22.30;;
3095;SDS011;1558;42.700;23.360;2022-12-07T14:53:31;40.27;;;23.33;;
3095;SDS011;1558;42.700;23.360;2022-12-07T14:56:05;32.73;;;24.00;;
3095;SDS011;1558;42.700;23.360;2022-12-07T14:58:34;38.70;;;24.43;;
3095;SDS011;1558;42.700;23.360;2022-12-07T15:01:02;36.70;;;23.97;;
3095;SDS011;1558;42.700;23.360;2022-12-07T15:03:31;44.47;;;24.33;;
3095;SDS011;1558;42.700;23.360;2022-12-07T15:06:00;44.10;;;25.77;;
3095;SDS011;1558;42.700;23.360;2022-12-07T15:08:28;43.60;;;26.90;;
3095;SDS011;1558;42.700;23.360;2022-12-07T15:10:58;46.43;;;27.03;;
3095;SDS011;1558;42.700;23.360;2022-12-07T15:13:26;47.00;;;27.33;;
3095;SDS011;1558;42.700;23.360;2022-12-07T15:16:12;53.37;;;29.60;;
3095;SDS011;1558;42.700;23.360;2022-12-07T15:18:43;67.33;;;33.57;;
3095;SDS011;1558;42.700;23.360;2022-12-07T15:21:31;51.37;;;29.80;;
3095;SDS011;1558;42.700;23.360;2022-12-07T15:24:00;38.70;;;26.53;;
3095;SDS011;1558;42.700;23.360;2022-12-07T15:26:28;47.73;;;28.07;;
3095;SDS011;1558;42.700;23.360;2022-12-07T15:28:56;44.33;;;25.63;;
3095;SDS011;1558;42.700;23.360;2022-12-07T15:31:24;56.57;;;30.10;;
3095;SDS011;1558;42.700;23.360;2022-12-07T15:34:12;55.73;;;32.60;;
3095;SDS011;1558;42.700;23.360;2022-12-07T15:36:40;57.33;;;30.10;;
3095;SDS011;1558;42.700;23.360;2022-12-07T15:39:09;55.13;;;31.13;;
3095;SDS011;1558;42.700;23.360;2022-12-07T15:41:40;53.60;;;32.97;;
3095;SDS011;1558;42.700;23.360;2022-12-07T15:44:08;66.87;;;33.80;;
3095;SDS011;1558;42.700;23.360;2022-12-07T15:46:56;56.47;;;31.13;;
3095;SDS011;1558;42.700;23.360;2022-12-07T15:49:24;62.23;;;33.33;;
3095;SDS011;1558;42.700;23.360;2022-12-07T15:51:53;57.17;;;35.17;;
3095;SDS011;1558;42.700;23.360;2022-12-07T15:54:23;51.93;;;34.67;;
3095;SDS011;1558;42.700;23.360;2022-12-07T15:56:52;61.77;;;39.87;;
3095;SDS011;1558;42.700;23.360;2022-12-07T15:59:21;67.47;;;46.47;;
3095;SDS011;1558;42.700;23.360;2022-12-07T16:01:49;55.10;;;37.57;;
3095;SDS011;1558;42.700;23.360;2022-12-07T16:04:17;65.30;;;37.43;;
3095;SDS011;1558;42.700;23.360;2022-12-07T16:06:45;73.87;;;46.00;;
3095;SDS011;1558;42.700;23.360;2022-12-07T16:09:13;70.07;;;43.33;;
3095;SDS011;1558;42.700;23.360;2022-12-07T16:11:42;78.07;;;46.47;;
3095;SDS011;1558;42.700;23.360;2022-12-07T16:14:10;95.80;;;58.87;;
3095;SDS011;1558;42.700;23.360;2022-12-07T16:16:38;84.70;;;50.50;;
3095;SDS011;1558;42.700;23.360;2022-12-07T16:19:09;74.43;;;46.23;;
3095;SDS011;1558;42.700;23.360;2022-12-07T16:21:38;72.33;;;46.83;;
3095;SDS011;1558;42.700;23.360;2022-12-07T16:24:07;64.83;;;39.93;;
3095;SDS011;1558;42.700;23.360;2022-12-07T16:26:36;63.07;;;38.97;;
3095;SDS011;1558;42.700;23.360;2022-12-07T16:29:11;75.20;;;47.40;;
3095;SDS011;1558;42.700;23.360;2022-12-07T16:31:41;84.43;;;46.10;;
3095;SDS011;1558;42.700;23.360;2022-12-07T16:34:09;60.70;;;38.37;;
3095;SDS011;1558;42.700;23.360;2022-12-07T16:36:37;54.13;;;36.87;;
3095;SDS011;1558;42.700;23.360;2022-12-07T16:39:25;70.80;;;44.83;;
3095;SDS011;1558;42.700;23.360;2022-12-07T16:41:53;70.97;;;46.40;;
3095;SDS011;1558;42.700;23.360;2022-12-07T16:44:22;67.00;;;48.60;;
3095;SDS011;1558;42.700;23.360;2022-12-07T16:46:51;73.67;;;53.27;;
3095;SDS011;1558;42.700;23.360;2022-12-07T16:49:19;72.60;;;53.47;;
3095;SDS011;1558;42.700;23.360;2022-12-07T16:51:49;58.77;;;40.83;;
3095;SDS011;1558;42.700;23.360;2022-12-07T16:54:37;55.00;;;41.27;;
3095;SDS011;1558;42.700;23.360;2022-12-07T16:57:06;53.90;;;36.83;;
3095;SDS011;1558;42.700;23.360;2022-12-07T16:59:35;54.97;;;40.30;;
3095;SDS011;1558;42.700;23.360;2022-12-07T17:02:03;65.80;;;43.93;;
3095;SDS011;1558;42.700;23.360;2022-12-07T17:04:32;46.80;;;34.40;;
3095;SDS011;1558;42.700;23.360;2022-12-07T17:07:01;36.93;;;28.17;;
3095;SDS011;1558;42.700;23.360;2022-12-07T17:09:28;42.47;;;29.50;;
3095;SDS011;1558;42.700;23.360;2022-12-07T17:11:57;41.20;;;31.53;;
3095;SDS011;1558;42.700;23.360;2022-12-07T17:14:25;53.97;;;38.47;;
3095;SDS011;1558;42.700;23.360;2022-12-07T17:17:11;45.47;;;32.83;;
3095;SDS011;1558;42.700;23.360;2022-12-07T17:19:39;36.10;;;26.80;;
3095;SDS011;1558;42.700;23.360;2022-12-07T17:22:08;38.10;;;27.67;;
3095;SDS011;1558;42.700;23.360;2022-12-07T17:24:38;45.03;;;32.70;;
3095;SDS011;1558;42.700;23.360;2022-12-07T17:27:06;42.77;;;31.40;;
3095;SDS011;1558;42.700;23.360;2022-12-07T17:29:34;53.90;;;38.43;;
3095;SDS011;1558;42.700;23.360;2022-12-07T17:32:02;54.00;;;41.63;;
3095;SDS011;1558;42.700;23.360;2022-12-07T17:34:32;70.10;;;46.77;;
3095;SDS011;1558;42.700;23.360;2022-12-07T17:37:00;52.20;;;37.13;;
3095;SDS011;1558;42.700;23.360;2022-12-07T17:39:28;49.50;;;38.53;;
3095;SDS011;1558;42.700;23.360;2022-12-07T17:41:56;56.43;;;41.70;;
3095;SDS011;1558;42.700;23.360;2022-12-07T17:44:41;55.43;;;42.63;;
3095;SDS011;1558;42.700;23.360;2022-12-07T17:47:10;55.17;;;41.50;;
3095;SDS011;1558;42.700;23.360;2022-12-07T17:49:42;64.47;;;46.03;;
3095;SDS011;1558;42.700;23.360;2022-12-07T17:52:11;70.53;;;49.20;;
3095;SDS011;1558;42.700;23.360;2022-12-07T17:54:57;67.13;;;50.93;;
3095;SDS011;1558;42.700;23.360;2022-12-07T17:57:26;72.57;;;53.40;;
3095;SDS011;1558;42.700;23.360;2022-12-07T17:59:56;82.13;;;62.30;;
3095;SDS011;1558;42.700;23.360;2022-12-07T18:02:24;81.73;;;65.17;;
3095;SDS011;1558;42.700;23.360;2022-12-07T18:04:54;102.23;;;75.43;;
3095;SDS011;1558;42.700;23.360;2022-12-07T18:07:22;97.60;;;73.80;;
3095;SDS011;1558;42.700;23.360;2022-12-07T18:09:50;86.23;;;59.97;;
3095;SDS011;1558;42.700;23.360;2022-12-07T18:12:18;71.00;;;53.53;;
3095;SDS011;1558;42.700;23.360;2022-12-07T18:14:46;58.60;;;43.87;;
3095;SDS011;1558;42.700;23.360;2022-12-07T18:17:16;62.83;;;44.17;;
3095;SDS011;1558;42.700;23.360;2022-12-07T18:19:44;48.63;;;34.30;;
3095;SDS011;1558;42.700;23.360;2022-12-07T18:22:13;43.93;;;30.17;;
3095;SDS011;1558;42.700;23.360;2022-12-07T18:24:41;37.97;;;28.27;;
3095;SDS011;1558;42.700;23.360;2022-12-07T18:27:09;32.23;;;25.40;;
3095;SDS011;1558;42.700;23.360;2022-12-07T18:29:37;63.23;;;47.57;;
3095;SDS011;1558;42.700;23.360;2022-12-07T18:32:06;57.83;;;42.13;;
3095;SDS011;1558;42.700;23.360;2022-12-07T18:34:34;73.23;;;40.57;;
3095;SDS011;1558;42.700;23.360;2022-12-07T18:37:01;44.43;;;32.10;;
3095;SDS011;1558;42.700;23.360;2022-12-07T18:39:31;34.03;;;25.87;;
3095;SDS011;1558;42.700;23.360;2022-12-07T18:41:59;33.50;;;26.33;;
3095;SDS011;1558;42.700;23.360;2022-12-07T18:44:27;46.77;;;36.40;;
3095;SDS011;1558;42.700;23.360;2022-12-07T18:46:56;39.77;;;30.97;;
3095;SDS011;1558;42.700;23.360;2022-12-07T18:49:23;79.73;;;53.47;;
3095;SDS011;1558;42.700;23.360;2022-12-07T18:51:51;54.33;;;41.47;;
3095;SDS011;1558;42.700;23.360;2022-12-07T18:54:19;49.27;;;36.90;;
3095;SDS011;1558;42.700;23.360;2022-12-07T18:56:48;58.23;;;42.73;;
3095;SDS011;1558;42.700;23.360;2022-12-07T18:59:16;37.43;;;29.13;;
3095;SDS011;1558;42.700;23.360;2022-12-07T19:02:02;43.27;;;33.07;;
3095;SDS011;1558;42.700;23.360;2022-12-07T19:04:30;36.83;;;29.13;;
3095;SDS011;1558;42.700;23.360;2022-12-07T19:06:58;44.03;;;32.43;;
3095;SDS011;1558;42.700;23.360;2022-12-07T19:09:26;40.57;;;29.70;;
3095;SDS011;1558;42.700;23.360;2022-12-07T19:11:55;44.60;;;34.10;;
3095;SDS011;1558;42.700;23.360;2022-12-07T19:14:29;41.97;;;33.10;;
3095;SDS011;1558;42.700;23.360;2022-12-07T19:16:59;42.53;;;33.00;;
3095;SDS011;1558;42.700;23.360;2022-12-07T19:19:29;40.47;;;31.03;;
3095;SDS011;1558;42.700;23.360;2022-12-07T19:21:59;43.80;;;31.23;;
3095;SDS011;1558;42.700;23.360;2022-12-07T19:24:27;40.87;;;30.33;;
3095;SDS011;1558;42.700;23.360;2022-12-07T19:26:57;41.33;;;27.97;;
3095;SDS011;1558;42.700;23.360;2022-12-07T19:29:27;38.20;;;28.83;;
3095;SDS011;1558;42.700;23.360;2022-12-07T19:31:56;36.63;;;29.23;;
3095;SDS011;1558;42.700;23.360;2022-12-07T19:34:25;41.93;;;29.70;;
3095;SDS011;1558;42.700;23.360;2022-12-07T19:36:53;42.87;;;31.67;;
3095;SDS011;1558;42.700;23.360;2022-12-07T19:39:21;43.37;;;33.33;;
3095;SDS011;1558;42.700;23.360;2022-12-07T19:41:49;47.93;;;37.27;;
3095;SDS011;1558;42.700;23.360;2022-12-07T19:44:19;43.90;;;33.03;;
3095;SDS011;1558;42.700;23.360;2022-12-07T19:46:48;43.47;;;33.23;;
3095;SDS011;1558;42.700;23.360;2022-12-07T19:49:17;45.37;;;33.93;;
3095;SDS011;1558;42.700;23.360;2022-12-07T19:51:47;49.67;;;36.47;;
3095;SDS011;1558;42.700;23.360;2022-12-07T19:54:17;48.10;;;36.63;;